sensor_id;sensor_type;location;lat;lon;timestamp;pressure;altitude;pressure_sealevel;temperature;humidity
56182;BME280;51963;46.052;14.544;2023-05-10T00:01:46;98108.91;;;7.30;100.00
56182;BME280;51963;46.052;14.544;2023-05-10T00:04:12;98123.00;;;7.37;100.00
56182;BME280;51963;46.052;14.544;2023-05-10T00:06:38;98135.47;;;7.43;100.00
56182;BME280;51963;46.052;14.544;2023-05-10T00:09:03;98134.94;;;7.48;100.00
56182;BME280;51963;46.052;14.544;2023-05-10T00:11:29;98105.59;;;7.36;100.00
56182;BME280;51963;46.052;14.544;2023-05-10T00:13:55;98122.28;;;7.52;100.00
56182;BME280;51963;46.052;14.544;2023-05-10T00:16:21;98124.38;;;7.56;100.00
56182;BME280;51963;46.052;14.544;2023-05-10T00:18:46;98111.16;;;7.41;100.00
56182;BME280;51963;46.052;14.544;2023-05-10T00:21:12;98116.72;;;7.46;100.00
56182;BME280;51963;46.052;14.544;2023-05-10T00:23:38;98107.88;;;7.39;100.00
56182;BME280;51963;46.052;14.544;2023-05-10T00:26:03;98102.13;;;7.36;100.00
56182;BME280;51963;46.052;14.544;2023-05-10T00:28:29;98113.44;;;7.44;100.00
56182;BME280;51963;46.052;14.544;2023-05-10T00:30:55;98104.94;;;7.34;100.00
56182;BME280;51963;46.052;14.544;2023-05-10T00:33:21;98107.88;;;7.39;100.00
56182;BME280;51963;46.052;14.544;2023-05-10T00:35:47;98092.16;;;7.31;100.00
56182;BME280;51963;46.052;14.544;2023-05-10T00:38:14;98103.84;;;7.52;100.00
56182;BME280;51963;46.052;14.544;2023-05-10T00:40:40;98089.75;;;7.44;100.00
56182;BME280;51963;46.052;14.544;2023-05-10T00:43:13;98084.16;;;7.47;100.00
56182;BME280;51963;46.052;14.544;2023-05-10T00:45:40;98083.41;;;7.62;100.00
56182;BME280;51963;46.052;14.544;2023-05-10T00:48:06;98071.59;;;7.58;100.00
56182;BME280;51963;46.052;14.544;2023-05-10T00:50:33;98075.84;;;7.59;100.00
56182;BME280;51963;46.052;14.544;2023-05-10T00:52:59;98058.31;;;7.51;100.00
56182;BME280;51963;46.052;14.544;2023-05-10T00:55:26;98057.50;;;7.51;100.00
56182;BME280;51963;46.052;14.544;2023-05-10T00:57:52;98078.38;;;7.75;100.00
56182;BME280;51963;46.052;14.544;2023-05-10T01:00:18;98064.50;;;7.82;100.00
56182;BME280;51963;46.052;14.544;2023-05-10T01:02:45;98059.16;;;7.90;100.00
56182;BME280;51963;46.052;14.544;2023-05-10T01:05:12;98062.38;;;8.00;100.00
56182;BME280;51963;46.052;14.544;2023-05-10T01:07:38;98057.75;;;8.02;100.00
56182;BME280;51963;46.052;14.544;2023-05-10T01:10:05;98055.94;;;8.18;100.00
56182;BME280;51963;46.052;14.544;2023-05-10T01:12:32;98053.88;;;8.28;100.00
56182;BME280;51963;46.052;14.544;2023-05-10T01:15:00;98051.59;;;8.25;100.00
56182;BME280;51963;46.052;14.544;2023-05-10T01:17:26;98026.06;;;8.11;100.00
56182;BME280;51963;46.052;14.544;2023-05-10T01:19:52;98037.25;;;8.28;100.00
56182;BME280;51963;46.052;14.544;2023-05-10T01:25:21;98035.63;;;8.27;100.00
56182;BME280;51963;46.052;14.544;2023-05-10T01:33:39;98054.03;;;8.12;100.00
56182;BME280;51963;46.052;14.544;2023-05-10T01:36:15;98032.78;;;7.98;100.00
56182;BME280;51963;46.052;14.544;2023-05-10T01:41:36;98027.03;;;7.95;100.00
56182;BME280;51963;46.052;14.544;2023-05-10T01:47:07;98014.31;;;7.83;100.00
56182;BME280;51963;46.052;14.544;2023-05-10T01:49:42;98044.56;;;8.02;100.00
56182;BME280;51963;46.052;14.544;2023-05-10T01:52:11;97998.50;;;7.83;100.00
56182;BME280;51963;46.052;14.544;2023-05-10T01:54:43;98032.59;;;8.15;100.00
56182;BME280;51963;46.052;14.544;2023-05-10T01:57:10;98037.06;;;8.14;100.00
56182;BME280;51963;46.052;14.544;2023-05-10T01:59:40;98034.25;;;8.16;100.00
56182;BME280;51963;46.052;14.544;2023-05-10T02:02:08;98034.59;;;8.13;100.00
56182;BME280;51963;46.052;14.544;2023-05-10T02:04:39;98032.97;;;8.12;100.00
56182;BME280;51963;46.052;14.544;2023-05-10T02:07:07;98027.84;;;7.95;100.00
56182;BME280;51963;46.052;14.544;2023-05-10T02:09:34;98015.56;;;7.87;100.00
56182;BME280;51963;46.052;14.544;2023-05-10T02:12:03;98032.97;;;7.97;100.00
56182;BME280;51963;46.052;14.544;2023-05-10T02:14:34;98023.88;;;7.99;100.00
56182;BME280;51963;46.052;14.544;2023-05-10T02:17:02;98021.31;;;7.91;100.00
56182;BME280;51963;46.052;14.544;2023-05-10T02:19:29;98033.03;;;8.03;100.00
56182;BME280;51963;46.052;14.544;2023-05-10T02:21:58;98016.97;;;7.98;100.00
56182;BME280;51963;46.052;14.544;2023-05-10T02:24:25;98032.97;;;8.12;100.00
56182;BME280;51963;46.052;14.544;2023-05-10T02:26:54;98028.06;;;8.08;100.00
56182;BME280;51963;46.052;14.544;2023-05-10T02:29:22;98022.78;;;8.08;100.00
56182;BME280;51963;46.052;14.544;2023-05-10T02:31:50;98009.00;;;8.06;100.00
56182;BME280;51963;46.052;14.544;2023-05-10T02:34:17;98023.47;;;8.26;100.00
56182;BME280;51963;46.052;14.544;2023-05-10T02:36:45;98018.63;;;8.29;100.00
56182;BME280;51963;46.052;14.544;2023-05-10T02:39:12;98010.72;;;8.29;100.00
56182;BME280;51963;46.052;14.544;2023-05-10T02:41:40;97999.09;;;8.39;100.00
56182;BME280;51963;46.052;14.544;2023-05-10T02:44:07;98012.63;;;8.65;100.00
56182;BME280;51963;46.052;14.544;2023-05-10T02:46:34;98001.84;;;8.60;100.00
56182;BME280;51963;46.052;14.544;2023-05-10T02:49:01;97996.09;;;8.72;100.00
56182;BME280;51963;46.052;14.544;2023-05-10T02:51:30;97990.56;;;8.66;100.00
56182;BME280;51963;46.052;14.544;2023-05-10T02:54:06;97995.72;;;8.75;100.00
56182;BME280;51963;46.052;14.544;2023-05-10T02:56:36;97992.59;;;8.86;100.00
56182;BME280;51963;46.052;14.544;2023-05-10T02:59:05;97997.25;;;8.84;100.00
56182;BME280;51963;46.052;14.544;2023-05-10T03:01:30;97967.94;;;8.57;100.00
56182;BME280;51963;46.052;14.544;2023-05-10T03:03:57;97999.09;;;8.69;100.00
56182;BME280;51963;46.052;14.544;2023-05-10T03:06:23;97991.03;;;8.55;100.00
56182;BME280;51963;46.052;14.544;2023-05-10T03:08:49;97986.50;;;8.49;100.00
56182;BME280;51963;46.052;14.544;2023-05-10T03:14:49;97995.91;;;8.28;100.00
56182;BME280;51963;46.052;14.544;2023-05-10T03:20:18;97975.22;;;7.95;100.00
56182;BME280;51963;46.052;14.544;2023-05-10T03:23:04;97990.66;;;7.98;100.00
56182;BME280;51963;46.052;14.544;2023-05-10T03:25:33;97989.38;;;7.94;100.00
56182;BME280;51963;46.052;14.544;2023-05-10T03:28:01;97989.91;;;7.89;100.00
56182;BME280;51963;46.052;14.544;2023-05-10T03:30:29;97989.63;;;7.84;100.00
56182;BME280;51963;46.052;14.544;2023-05-10T03:32:56;97984.09;;;7.94;100.00
56182;BME280;51963;46.052;14.544;2023-05-10T03:35:23;97991.56;;;8.05;100.00
56182;BME280;51963;46.052;14.544;2023-05-10T03:37:49;97996.75;;;8.14;100.00
56182;BME280;51963;46.052;14.544;2023-05-10T03:40:14;97984.75;;;8.26;100.00
56182;BME280;51963;46.052;14.544;2023-05-10T03:42:42;98009.75;;;8.60;100.00
56182;BME280;51963;46.052;14.544;2023-05-10T03:45:09;98000.84;;;8.61;100.00
56182;BME280;51963;46.052;14.544;2023-05-10T03:47:35;98010.63;;;8.68;100.00
56182;BME280;51963;46.052;14.544;2023-05-10T03:50:01;97960.59;;;8.53;100.00
56182;BME280;51963;46.052;14.544;2023-05-10T03:52:29;98009.78;;;8.82;100.00
56182;BME280;51963;46.052;14.544;2023-05-10T03:54:55;98014.97;;;8.90;100.00
56182;BME280;51963;46.052;14.544;2023-05-10T03:57:22;97998.19;;;8.76;100.00
56182;BME280;51963;46.052;14.544;2023-05-10T03:59:48;97996.47;;;8.69;100.00
56182;BME280;51963;46.052;14.544;2023-05-10T04:02:14;98016.41;;;8.93;100.00
56182;BME280;51963;46.052;14.544;2023-05-10T04:04:40;98014.72;;;9.07;100.00
56182;BME280;51963;46.052;14.544;2023-05-10T04:07:05;98009.53;;;9.14;100.00
56182;BME280;51963;46.052;14.544;2023-05-10T04:09:31;97983.34;;;9.12;100.00
56182;BME280;51963;46.052;14.544;2023-05-10T04:11:58;98012.56;;;9.32;100.00
56182;BME280;51963;46.052;14.544;2023-05-10T04:14:25;98017.38;;;9.29;100.00
56182;BME280;51963;46.052;14.544;2023-05-10T04:16:50;98008.91;;;9.33;100.00
56182;BME280;51963;46.052;14.544;2023-05-10T04:19:16;98008.47;;;9.30;100.00
56182;BME280;51963;46.052;14.544;2023-05-10T04:21:42;98006.78;;;9.44;100.00
56182;BME280;51963;46.052;14.544;2023-05-10T04:24:08;97998.41;;;9.40;100.00
56182;BME280;51963;46.052;14.544;2023-05-10T04:26:33;97996.91;;;9.52;100.00
56182;BME280;51963;46.052;14.544;2023-05-10T04:28:59;98008.13;;;9.83;100.00
56182;BME280;51963;46.052;14.544;2023-05-10T04:31:24;97989.56;;;9.76;100.00
56182;BME280;51963;46.052;14.544;2023-05-10T04:33:51;98000.09;;;9.98;100.00
56182;BME280;51963;46.052;14.544;2023-05-10T04:36:17;98011.00;;;9.88;100.00
56182;BME280;51963;46.052;14.544;2023-05-10T04:38:43;97977.00;;;9.78;100.00
56182;BME280;51963;46.052;14.544;2023-05-10T04:41:10;98002.28;;;10.23;100.00
56182;BME280;51963;46.052;14.544;2023-05-10T04:43:36;98007.94;;;10.20;100.00
56182;BME280;51963;46.052;14.544;2023-05-10T04:46:03;98008.81;;;10.27;100.00
56182;BME280;51963;46.052;14.544;2023-05-10T04:48:29;98005.78;;;10.30;100.00
56182;BME280;51963;46.052;14.544;2023-05-10T04:50:55;97996.41;;;10.27;100.00
56182;BME280;51963;46.052;14.544;2023-05-10T04:53:20;98012.78;;;10.45;100.00
56182;BME280;51963;46.052;14.544;2023-05-10T04:55:46;98008.78;;;10.20;100.00
56182;BME280;51963;46.052;14.544;2023-05-10T04:58:12;98014.47;;;10.24;100.00
56182;BME280;51963;46.052;14.544;2023-05-10T05:00:38;98011.28;;;10.35;100.00
56182;BME280;51963;46.052;14.544;2023-05-10T05:03:04;98001.59;;;10.42;100.00
56182;BME280;51963;46.052;14.544;2023-05-10T05:05:29;98018.69;;;10.47;100.00
56182;BME280;51963;46.052;14.544;2023-05-10T05:07:55;98007.72;;;10.50;100.00
56182;BME280;51963;46.052;14.544;2023-05-10T05:10:21;98004.06;;;10.44;100.00
56182;BME280;51963;46.052;14.544;2023-05-10T05:12:47;98031.34;;;10.51;100.00
56182;BME280;51963;46.052;14.544;2023-05-10T05:15:13;98027.78;;;10.73;100.00
56182;BME280;51963;46.052;14.544;2023-05-10T05:17:38;98028.31;;;10.54;100.00
56182;BME280;51963;46.052;14.544;2023-05-10T05:20:04;98007.81;;;10.63;100.00
56182;BME280;51963;46.052;14.544;2023-05-10T05:22:30;98018.53;;;11.04;100.00
56182;BME280;51963;46.052;14.544;2023-05-10T05:24:57;98014.25;;;11.03;100.00
56182;BME280;51963;46.052;14.544;2023-05-10T05:27:24;98018.56;;;11.24;100.00
56182;BME280;51963;46.052;14.544;2023-05-10T05:29:58;98004.31;;;11.05;100.00
56182;BME280;51963;46.052;14.544;2023-05-10T05:32:24;98024.50;;;11.33;100.00
56182;BME280;51963;46.052;14.544;2023-05-10T05:34:50;98020.66;;;11.42;100.00
56182;BME280;51963;46.052;14.544;2023-05-10T05:37:18;98011.63;;;11.03;100.00
56182;BME280;51963;46.052;14.544;2023-05-10T05:39:44;98025.63;;;10.96;100.00
56182;BME280;51963;46.052;14.544;2023-05-10T05:42:10;98022.75;;;10.84;100.00
56182;BME280;51963;46.052;14.544;2023-05-10T05:44:36;98020.22;;;11.32;100.00
56182;BME280;51963;46.052;14.544;2023-05-10T05:47:05;98012.44;;;11.17;100.00
56182;BME280;51963;46.052;14.544;2023-05-10T05:49:32;98033.19;;;10.99;100.00
56182;BME280;51963;46.052;14.544;2023-05-10T05:52:02;98030.16;;;11.09;100.00
56182;BME280;51963;46.052;14.544;2023-05-10T05:54:29;98033.47;;;11.32;100.00
56182;BME280;51963;46.052;14.544;2023-05-10T05:56:55;98032.84;;;11.36;100.00
56182;BME280;51963;46.052;14.544;2023-05-10T05:59:25;98023.09;;;11.37;100.00
56182;BME280;51963;46.052;14.544;2023-05-10T06:01:52;98030.41;;;11.41;100.00
56182;BME280;51963;46.052;14.544;2023-05-10T06:04:18;98028.81;;;11.54;100.00
56182;BME280;51963;46.052;14.544;2023-05-10T06:06:44;98018.22;;;11.47;100.00
56182;BME280;51963;46.052;14.544;2023-05-10T06:09:10;98015.38;;;11.69;100.00
56182;BME280;51963;46.052;14.544;2023-05-10T06:11:36;98029.22;;;11.84;100.00
56182;BME280;51963;46.052;14.544;2023-05-10T06:14:03;98025.34;;;11.94;100.00
56182;BME280;51963;46.052;14.544;2023-05-10T06:16:34;98032.69;;;11.92;100.00
56182;BME280;51963;46.052;14.544;2023-05-10T06:19:00;98040.84;;;11.97;100.00
56182;BME280;51963;46.052;14.544;2023-05-10T06:21:25;98034.94;;;11.81;100.00
56182;BME280;51963;46.052;14.544;2023-05-10T06:23:51;98036.56;;;11.89;100.00
56182;BME280;51963;46.052;14.544;2023-05-10T06:26:17;98042.66;;;11.83;100.00
56182;BME280;51963;46.052;14.544;2023-05-10T06:28:42;98039.38;;;11.54;100.00
56182;BME280;51963;46.052;14.544;2023-05-10T06:31:08;98041.06;;;11.75;100.00
56182;BME280;51963;46.052;14.544;2023-05-10T06:33:34;98040.81;;;12.30;100.00
56182;BME280;51963;46.052;14.544;2023-05-10T06:36:00;98041.59;;;12.58;100.00
56182;BME280;51963;46.052;14.544;2023-05-10T06:38:26;98024.00;;;12.70;100.00
56182;BME280;51963;46.052;14.544;2023-05-10T06:40:52;98041.00;;;13.01;98.21
56182;BME280;51963;46.052;14.544;2023-05-10T06:43:17;98027.63;;;13.21;97.06
56182;BME280;51963;46.052;14.544;2023-05-10T06:45:43;98012.72;;;13.20;95.19
56182;BME280;51963;46.052;14.544;2023-05-10T06:48:09;98043.13;;;13.25;94.36
56182;BME280;51963;46.052;14.544;2023-05-10T06:50:34;98043.03;;;13.45;92.54
56182;BME280;51963;46.052;14.544;2023-05-10T06:53:00;98031.69;;;13.31;93.37
56182;BME280;51963;46.052;14.544;2023-05-10T06:55:27;98049.81;;;13.73;92.53
56182;BME280;51963;46.052;14.544;2023-05-10T06:57:53;98039.50;;;13.83;91.86
56182;BME280;51963;46.052;14.544;2023-05-10T07:00:19;98037.59;;;14.16;88.49
56182;BME280;51963;46.052;14.544;2023-05-10T07:02:45;98019.00;;;14.34;90.47
56182;BME280;51963;46.052;14.544;2023-05-10T07:05:12;97996.31;;;14.50;86.98
56182;BME280;51963;46.052;14.544;2023-05-10T07:07:38;98039.34;;;13.78;89.45
56182;BME280;51963;46.052;14.544;2023-05-10T07:10:04;98039.66;;;13.63;90.61
56182;BME280;51963;46.052;14.544;2023-05-10T07:12:30;98042.72;;;13.28;91.71
56182;BME280;51963;46.052;14.544;2023-05-10T07:14:56;98028.44;;;13.86;89.09
56182;BME280;51963;46.052;14.544;2023-05-10T07:17:21;98035.63;;;13.86;87.65
56182;BME280;51963;46.052;14.544;2023-05-10T07:19:47;98036.50;;;14.42;86.23
56182;BME280;51963;46.052;14.544;2023-05-10T07:22:14;98033.72;;;14.93;84.58
56182;BME280;51963;46.052;14.544;2023-05-10T07:24:40;98022.06;;;14.75;84.65
56182;BME280;51963;46.052;14.544;2023-05-10T07:27:06;98017.72;;;14.18;86.08
56182;BME280;51963;46.052;14.544;2023-05-10T07:29:32;98022.63;;;14.40;84.54
56182;BME280;51963;46.052;14.544;2023-05-10T07:31:58;98030.28;;;15.04;82.64
56182;BME280;51963;46.052;14.544;2023-05-10T07:34:24;98022.38;;;15.28;80.56
56182;BME280;51963;46.052;14.544;2023-05-10T07:36:49;98029.16;;;15.43;80.24
56182;BME280;51963;46.052;14.544;2023-05-10T07:39:15;98028.53;;;15.83;80.29
56182;BME280;51963;46.052;14.544;2023-05-10T07:41:42;98028.03;;;16.05;77.08
56182;BME280;51963;46.052;14.544;2023-05-10T07:44:07;98029.50;;;16.12;76.57
56182;BME280;51963;46.052;14.544;2023-05-10T07:46:33;98023.72;;;16.27;75.85
56182;BME280;51963;46.052;14.544;2023-05-10T07:48:59;98015.91;;;15.78;77.61
56182;BME280;51963;46.052;14.544;2023-05-10T07:51:25;98019.31;;;15.43;79.48
56182;BME280;51963;46.052;14.544;2023-05-10T07:53:50;98029.72;;;15.33;79.73
56182;BME280;51963;46.052;14.544;2023-05-10T07:56:22;98033.88;;;15.40;80.77
56182;BME280;51963;46.052;14.544;2023-05-10T07:58:48;98024.44;;;16.11;78.92
56182;BME280;51963;46.052;14.544;2023-05-10T08:01:14;98023.34;;;16.48;76.56
56182;BME280;51963;46.052;14.544;2023-05-10T08:03:40;98025.88;;;15.71;77.80
56182;BME280;51963;46.052;14.544;2023-05-10T08:06:05;98018.16;;;15.93;77.97
56182;BME280;51963;46.052;14.544;2023-05-10T08:08:31;98031.06;;;16.73;76.41
56182;BME280;51963;46.052;14.544;2023-05-10T08:10:57;98030.41;;;16.66;72.13
56182;BME280;51963;46.052;14.544;2023-05-10T08:13:23;98014.59;;;16.76;72.65
56182;BME280;51963;46.052;14.544;2023-05-10T08:15:48;98016.13;;;16.60;72.65
56182;BME280;51963;46.052;14.544;2023-05-10T08:18:14;98007.28;;;16.07;74.62
56182;BME280;51963;46.052;14.544;2023-05-10T08:20:39;98022.91;;;16.39;74.38
56182;BME280;51963;46.052;14.544;2023-05-10T08:23:05;98018.31;;;16.75;73.77
56182;BME280;51963;46.052;14.544;2023-05-10T08:25:31;98028.19;;;16.63;72.22
56182;BME280;51963;46.052;14.544;2023-05-10T08:27:57;98020.13;;;16.10;74.74
56182;BME280;51963;46.052;14.544;2023-05-10T08:30:22;98027.22;;;16.16;75.72
56182;BME280;51963;46.052;14.544;2023-05-10T08:32:48;98006.31;;;15.89;76.50
56182;BME280;51963;46.052;14.544;2023-05-10T08:35:14;98015.25;;;16.19;73.22
56182;BME280;51963;46.052;14.544;2023-05-10T08:37:39;98028.59;;;16.31;72.92
56182;BME280;51963;46.052;14.544;2023-05-10T08:40:05;98015.84;;;16.33;73.63
56182;BME280;51963;46.052;14.544;2023-05-10T08:42:34;98015.38;;;16.36;72.13
56182;BME280;51963;46.052;14.544;2023-05-10T08:45:04;98015.16;;;16.25;72.71
56182;BME280;51963;46.052;14.544;2023-05-10T08:47:30;98018.41;;;15.61;76.75
56182;BME280;51963;46.052;14.544;2023-05-10T08:49:57;98011.22;;;15.92;76.20
56182;BME280;51963;46.052;14.544;2023-05-10T08:52:26;98019.22;;;15.92;74.49
56182;BME280;51963;46.052;14.544;2023-05-10T08:54:52;97990.94;;;15.91;73.52
56182;BME280;51963;46.052;14.544;2023-05-10T08:57:19;98011.28;;;15.86;74.42
56182;BME280;51963;46.052;14.544;2023-05-10T08:59:45;98010.50;;;16.09;74.58
56182;BME280;51963;46.052;14.544;2023-05-10T09:02:13;98013.66;;;16.06;74.14
56182;BME280;51963;46.052;14.544;2023-05-10T09:04:42;98015.97;;;16.14;74.16
56182;BME280;51963;46.052;14.544;2023-05-10T09:07:08;97974.16;;;15.60;74.61
56182;BME280;51963;46.052;14.544;2023-05-10T09:09:34;98015.97;;;15.48;75.13
56182;BME280;51963;46.052;14.544;2023-05-10T09:12:00;98020.81;;;15.51;76.04
56182;BME280;51963;46.052;14.544;2023-05-10T09:14:26;97999.72;;;15.37;76.09
56182;BME280;51963;46.052;14.544;2023-05-10T09:16:55;98018.50;;;15.43;77.34
56182;BME280;51963;46.052;14.544;2023-05-10T09:19:21;98015.69;;;15.37;77.85
56182;BME280;51963;46.052;14.544;2023-05-10T09:21:48;98026.19;;;15.20;81.73
56182;BME280;51963;46.052;14.544;2023-05-10T09:24:14;97999.22;;;14.86;84.94
56182;BME280;51963;46.052;14.544;2023-05-10T09:26:47;98019.94;;;14.96;83.36
56182;BME280;51963;46.052;14.544;2023-05-10T09:29:16;98021.75;;;14.84;82.95
56182;BME280;51963;46.052;14.544;2023-05-10T09:31:47;98023.00;;;14.44;85.40
56182;BME280;51963;46.052;14.544;2023-05-10T09:34:27;98020.41;;;14.56;85.57
56182;BME280;51963;46.052;14.544;2023-05-10T09:36:56;98014.50;;;14.35;85.84
56182;BME280;51963;46.052;14.544;2023-05-10T09:39:33;98018.34;;;14.39;85.88
56182;BME280;51963;46.052;14.544;2023-05-10T09:42:02;98013.38;;;14.05;86.65
56182;BME280;51963;46.052;14.544;2023-05-10T09:44:29;98018.00;;;14.10;85.58
56182;BME280;51963;46.052;14.544;2023-05-10T09:46:55;97999.03;;;14.06;85.02
56182;BME280;51963;46.052;14.544;2023-05-10T09:49:22;98004.69;;;13.91;86.99
56182;BME280;51963;46.052;14.544;2023-05-10T09:52:00;97996.72;;;13.91;87.31
56182;BME280;51963;46.052;14.544;2023-05-10T09:54:25;98008.22;;;14.29;87.32
56182;BME280;51963;46.052;14.544;2023-05-10T09:56:51;98019.59;;;14.18;86.57
56182;BME280;51963;46.052;14.544;2023-05-10T09:59:18;98002.56;;;14.00;87.27
56182;BME280;51963;46.052;14.544;2023-05-10T10:01:49;98015.94;;;14.12;87.79
56182;BME280;51963;46.052;14.544;2023-05-10T10:04:15;98007.63;;;14.27;88.54
56182;BME280;51963;46.052;14.544;2023-05-10T10:06:41;98005.00;;;14.02;89.23
56182;BME280;51963;46.052;14.544;2023-05-10T10:09:08;98010.78;;;14.17;89.77
56182;BME280;51963;46.052;14.544;2023-05-10T10:11:37;98018.09;;;14.03;91.71
56182;BME280;51963;46.052;14.544;2023-05-10T10:14:04;98017.78;;;13.93;92.90
56182;BME280;51963;46.052;14.544;2023-05-10T10:16:30;97997.09;;;13.70;94.58
56182;BME280;51963;46.052;14.544;2023-05-10T10:18:59;98019.53;;;13.74;96.72
56182;BME280;51963;46.052;14.544;2023-05-10T10:21:25;98015.59;;;13.83;98.55
56182;BME280;51963;46.052;14.544;2023-05-10T10:23:51;98013.09;;;13.88;98.85
56182;BME280;51963;46.052;14.544;2023-05-10T10:26:17;98012.06;;;13.89;100.00
56182;BME280;51963;46.052;14.544;2023-05-10T10:29:13;98018.63;;;13.87;100.00
56182;BME280;51963;46.052;14.544;2023-05-10T10:31:47;98013.81;;;13.77;100.00
56182;BME280;51963;46.052;14.544;2023-05-10T10:34:28;98019.00;;;13.90;100.00
56182;BME280;51963;46.052;14.544;2023-05-10T10:36:55;98014.66;;;13.71;100.00
56182;BME280;51963;46.052;14.544;2023-05-10T10:39:22;98012.00;;;13.71;100.00
56182;BME280;51963;46.052;14.544;2023-05-10T10:41:54;98009.88;;;13.54;100.00
56182;BME280;51963;46.052;14.544;2023-05-10T10:44:33;98014.41;;;13.79;100.00
56182;BME280;51963;46.052;14.544;2023-05-10T10:52:24;97991.94;;;13.75;100.00
56182;BME280;51963;46.052;14.544;2023-05-10T10:55:01;98003.00;;;13.97;100.00
56182;BME280;51963;46.052;14.544;2023-05-10T10:57:28;97993.81;;;13.74;100.00
56182;BME280;51963;46.052;14.544;2023-05-10T11:03:06;97985.16;;;13.79;100.00
56182;BME280;51963;46.052;14.544;2023-05-10T11:05:57;97999.25;;;13.54;100.00
56182;BME280;51963;46.052;14.544;2023-05-10T11:08:41;97992.97;;;13.74;100.00
56182;BME280;51963;46.052;14.544;2023-05-10T11:11:08;97987.72;;;13.92;100.00
56182;BME280;51963;46.052;14.544;2023-05-10T11:13:41;97999.09;;;14.00;100.00
56182;BME280;51963;46.052;14.544;2023-05-10T11:16:17;97977.22;;;13.98;100.00
56182;BME280;51963;46.052;14.544;2023-05-10T11:18:57;97993.34;;;14.21;100.00
56182;BME280;51963;46.052;14.544;2023-05-10T11:21:23;97996.66;;;13.98;100.00
56182;BME280;51963;46.052;14.544;2023-05-10T11:23:54;97992.16;;;14.17;100.00
56182;BME280;51963;46.052;14.544;2023-05-10T11:26:34;97981.22;;;13.88;100.00
56182;BME280;51963;46.052;14.544;2023-05-10T11:29:00;97996.06;;;13.96;100.00
56182;BME280;51963;46.052;14.544;2023-05-10T11:31:27;97994.00;;;13.98;100.00
56182;BME280;51963;46.052;14.544;2023-05-10T11:33:58;97989.06;;;14.02;100.00
56182;BME280;51963;46.052;14.544;2023-05-10T11:36:27;97993.66;;;14.13;100.00
56182;BME280;51963;46.052;14.544;2023-05-10T11:38:54;97993.22;;;14.35;100.00
56182;BME280;51963;46.052;14.544;2023-05-10T11:41:22;97980.91;;;14.22;100.00
56182;BME280;51963;46.052;14.544;2023-05-10T11:43:53;97986.50;;;14.14;100.00
56182;BME280;51963;46.052;14.544;2023-05-10T11:46:24;97976.53;;;14.28;100.00
56182;BME280;51963;46.052;14.544;2023-05-10T11:48:57;97987.31;;;14.51;100.00
56182;BME280;51963;46.052;14.544;2023-05-10T11:51:24;97974.84;;;14.33;100.00
56182;BME280;51963;46.052;14.544;2023-05-10T11:53:53;97989.91;;;14.40;100.00
56182;BME280;51963;46.052;14.544;2023-05-10T11:56:19;97993.38;;;14.40;100.00
56182;BME280;51963;46.052;14.544;2023-05-10T11:58:56;97974.31;;;14.43;100.00
56182;BME280;51963;46.052;14.544;2023-05-10T12:01:26;97981.34;;;14.37;100.00
56182;BME280;51963;46.052;14.544;2023-05-10T12:03:53;97983.47;;;14.29;100.00
56182;BME280;51963;46.052;14.544;2023-05-10T12:06:20;97964.06;;;14.28;100.00
56182;BME280;51963;46.052;14.544;2023-05-10T12:08:47;97984.19;;;14.36;100.00
56182;BME280;51963;46.052;14.544;2023-05-10T12:11:14;97989.06;;;14.02;100.00
56182;BME280;51963;46.052;14.544;2023-05-10T12:13:42;97987.81;;;14.04;100.00
56182;BME280;51963;46.052;14.544;2023-05-10T12:16:23;97988.63;;;14.05;100.00
56182;BME280;51963;46.052;14.544;2023-05-10T12:18:50;97978.81;;;14.05;100.00
56182;BME280;51963;46.052;14.544;2023-05-10T12:21:17;97986.69;;;14.12;100.00
56182;BME280;51963;46.052;14.544;2023-05-10T12:23:45;97973.81;;;13.90;100.00
56182;BME280;51963;46.052;14.544;2023-05-10T12:26:12;97992.28;;;13.85;100.00
56182;BME280;51963;46.052;14.544;2023-05-10T12:28:38;97994.97;;;14.04;100.00
56182;BME280;51963;46.052;14.544;2023-05-10T12:31:05;97960.34;;;13.67;100.00
56182;BME280;51963;46.052;14.544;2023-05-10T12:33:44;97972.59;;;13.68;100.00
56182;BME280;51963;46.052;14.544;2023-05-10T12:36:13;97993.19;;;13.98;100.00
56182;BME280;51963;46.052;14.544;2023-05-10T12:38:44;97981.38;;;14.12;100.00
56182;BME280;51963;46.052;14.544;2023-05-10T12:41:15;97975.13;;;14.06;100.00
56182;BME280;51963;46.052;14.544;2023-05-10T12:43:41;97969.97;;;13.86;100.00
56182;BME280;51963;46.052;14.544;2023-05-10T12:46:14;97984.84;;;13.94;100.00
56182;BME280;51963;46.052;14.544;2023-05-10T12:48:41;97988.81;;;13.85;100.00
56182;BME280;51963;46.052;14.544;2023-05-10T12:51:08;97985.88;;;13.93;100.00
56182;BME280;51963;46.052;14.544;2023-05-10T12:53:35;97987.28;;;13.96;100.00
56182;BME280;51963;46.052;14.544;2023-05-10T12:56:06;97980.34;;;13.94;100.00
56182;BME280;51963;46.052;14.544;2023-05-10T12:58:32;97965.84;;;13.90;100.00
56182;BME280;51963;46.052;14.544;2023-05-10T13:00:58;97964.03;;;14.10;100.00
56182;BME280;51963;46.052;14.544;2023-05-10T13:03:24;97981.00;;;13.90;100.00
56182;BME280;51963;46.052;14.544;2023-05-10T13:05:50;97974.63;;;13.72;100.00
56182;BME280;51963;46.052;14.544;2023-05-10T13:08:16;97975.25;;;13.68;100.00
56182;BME280;51963;46.052;14.544;2023-05-10T13:10:41;97977.16;;;13.86;100.00
56182;BME280;51963;46.052;14.544;2023-05-10T13:13:07;97968.53;;;14.09;100.00
56182;BME280;51963;46.052;14.544;2023-05-10T13:15:34;97973.41;;;14.12;100.00
56182;BME280;51963;46.052;14.544;2023-05-10T13:18:02;97953.78;;;14.13;100.00